Time;durP1;ratioP1;P1;durP2;ratioP2;P2;SDS_P1;SDS_P2;PMS_P1;PMS_P2;Temp;Humidity;BMP_temperature;BMP_pressure;BME280_temperature;BME280_humidity;BME280_pressure;Samples;Min_cycle;Max_cycle;Signal;HPM_P1;HPM_P2
2022/11/02 00:01:19;;;;;;;13.55;2.50;;;13.80;99.90;;;;;;5055667;28;20052;-78
2022/11/02 00:03:45;;;;;;;13.35;2.85;;;13.80;99.90;;;;;;5092761;28;20037;-78
2022/11/02 00:06:11;;;;;;;10.93;2.75;;;13.80;99.90;;;;;;5063520;28;20045;-78
2022/11/02 00:08:37;;;;;;;10.38;2.50;;;13.70;99.90;;;;;;5072202;28;20039;-78
2022/11/02 00:11:02;;;;;;;11.73;2.63;;;13.80;99.90;;;;;;5060359;28;20542;-78
2022/11/02 00:13:28;;;;;;;13.38;2.85;;;13.70;99.90;;;;;;5083073;28;20091;-77
2022/11/02 00:15:54;;;;;;;15.07;3.05;;;13.70;99.90;;;;;;5099990;28;20478;-78
2022/11/02 00:18:20;;;;;;;11.48;2.60;;;13.80;99.90;;;;;;5064465;28;20102;-78
2022/11/02 00:20:46;;;;;;;12.75;2.65;;;13.70;99.90;;;;;;5052947;28;20040;-78
2022/11/02 00:23:13;;;;;;;11.02;2.63;;;13.60;99.90;;;;;;5060929;28;20036;-78
2022/11/02 00:25:42;;;;;;;16.88;3.22;;;13.70;99.90;;;;;;5065658;28;20040;-78
2022/11/02 00:28:09;;;;;;;16.10;3.20;;;13.70;99.90;;;;;;5050303;28;20132;-77
2022/11/02 00:30:36;;;;;;;14.13;3.67;;;13.60;99.90;;;;;;5057401;28;20060;-78
2022/11/02 00:33:01;;;;;;;17.55;2.83;;;13.60;99.90;;;;;;5094863;28;20483;-78
2022/11/02 00:35:27;;;;;;;13.25;2.78;;;13.60;99.90;;;;;;5067504;28;20070;-78
2022/11/02 00:37:53;;;;;;;12.88;2.95;;;13.60;99.90;;;;;;5074199;28;20036;-78
2022/11/02 00:40:18;;;;;;;13.82;3.42;;;13.60;99.90;;;;;;5065893;28;20094;-78
2022/11/02 00:42:44;;;;;;;10.93;2.78;;;13.60;99.90;;;;;;5053484;28;20044;-78
2022/11/02 00:45:10;;;;;;;14.13;2.97;;;13.60;99.90;;;;;;5071479;28;20021;-77
2022/11/02 00:47:36;;;;;;;13.43;2.83;;;13.60;99.90;;;;;;5058434;28;20083;-77
2022/11/02 00:50:02;;;;;;;9.40;2.92;;;13.60;99.90;;;;;;5051109;28;20052;-78
2022/11/02 00:52:28;;;;;;;9.90;2.75;;;13.60;99.90;;;;;;5098139;28;20060;-77
2022/11/02 00:54:54;;;;;;;12.55;2.78;;;13.60;99.90;;;;;;5061656;28;20037;-78
2022/11/02 00:57:19;;;;;;;13.30;2.97;;;13.60;99.90;;;;;;5063635;28;20036;-77
2022/11/02 00:59:45;;;;;;;10.90;2.67;;;13.60;99.90;;;;;;5061875;28;20071;-77
2022/11/02 01:02:10;;;;;;;12.70;2.85;;;13.60;99.90;;;;;;5059617;28;20198;-78
2022/11/02 01:04:36;;;;;;;13.52;2.85;;;13.60;99.90;;;;;;5067789;28;20491;-78
2022/11/02 01:07:02;;;;;;;9.25;2.30;;;13.60;99.90;;;;;;5090204;28;20040;-78
2022/11/02 01:09:28;;;;;;;12.88;2.97;;;13.60;99.90;;;;;;5111601;27;20036;-78
2022/11/02 01:11:54;;;;;;;15.05;3.05;;;13.60;99.90;;;;;;5085924;28;20190;-78
2022/11/02 01:14:20;;;;;;;12.73;3.22;;;13.60;99.90;;;;;;5082843;28;20040;-78
2022/11/02 01:16:46;;;;;;;13.03;2.93;;;13.70;99.90;;;;;;5075236;28;20041;-78
2022/11/02 01:19:13;;;;;;;11.15;2.92;;;13.70;99.90;;;;;;5063078;28;20658;-78
2022/11/02 01:21:39;;;;;;;12.20;2.97;;;13.70;99.90;;;;;;5063189;28;20048;-78
2022/11/02 01:24:05;;;;;;;15.18;3.70;;;13.60;99.90;;;;;;5072839;28;20570;-78
2022/11/02 01:26:31;;;;;;;13.00;3.45;;;13.60;99.90;;;;;;5050016;28;20067;-78
2022/11/02 01:28:57;;;;;;;11.73;2.78;;;13.60;99.90;;;;;;5072101;28;20659;-77
2022/11/02 01:31:22;;;;;;;14.55;2.80;;;13.60;99.90;;;;;;5059236;28;20131;-78
2022/11/02 01:33:48;;;;;;;11.38;2.60;;;13.60;99.90;;;;;;5058173;28;20094;-78
2022/11/02 01:36:19;;;;;;;14.48;2.72;;;13.60;99.90;;;;;;5047450;28;20489;-78
2022/11/02 01:38:45;;;;;;;12.70;2.80;;;13.60;99.90;;;;;;5052816;28;20380;-77
2022/11/02 01:41:11;;;;;;;14.88;2.85;;;13.70;99.90;;;;;;5072080;28;20048;-77
2022/11/02 01:43:40;;;;;;;12.27;2.95;;;13.60;99.90;;;;;;5086624;28;20059;-77
2022/11/02 01:46:07;;;;;;;11.32;2.60;;;13.60;99.90;;;;;;5103895;27;20192;-78
2022/11/02 01:48:50;;;;;;;12.35;2.75;;;13.60;99.90;;;;;;5066360;28;20076;-77
2022/11/02 01:51:29;;;;;;;11.52;2.70;;;13.60;99.90;;;;;;5048263;28;20400;-77
2022/11/02 01:54:04;;;;;;;13.63;2.90;;;13.60;99.90;;;;;;5048597;28;20538;-77
2022/11/02 01:56:32;;;;;;;12.93;2.58;;;13.60;99.90;;;;;;5059824;28;20048;-77
2022/11/02 01:59:00;;;;;;;;;;;13.60;99.90;;;;;;5065352;28;20063;-77
2022/11/02 02:01:26;;;;;;;10.52;2.65;;;13.60;99.90;;;;;;5062925;28;19921;-77
2022/11/02 02:03:53;;;;;;;12.00;2.70;;;13.60;99.90;;;;;;5068392;28;20079;-77
2022/11/02 02:06:18;;;;;;;12.30;2.45;;;13.60;99.90;;;;;;5061920;28;20505;-77
2022/11/02 02:08:47;;;;;;;14.25;3.47;;;13.60;99.90;;;;;;5049622;28;20112;-77
2022/11/02 02:11:33;;;;;;;12.10;2.78;;;13.60;99.90;;;;;;5077884;28;20078;-78
2022/11/02 02:14:08;;;;;;;12.13;2.90;;;13.70;99.90;;;;;;5087929;28;20036;-77
2022/11/02 02:17:04;;;;;;;13.35;3.20;;;13.60;99.90;;;;;;5079528;28;20056;-77
2022/11/02 02:19:59;;;;;;;13.38;2.95;;;13.60;99.90;;;;;;5088610;28;20054;-76
2022/11/02 02:22:48;;;;;;;9.93;2.22;;;13.60;99.90;;;;;;5066473;28;20060;-77
2022/11/02 02:25:33;;;;;;;16.48;3.17;;;13.60;99.90;;;;;;5048481;28;20049;-77
2022/11/02 02:28:19;;;;;;;13.07;2.70;;;13.60;99.90;;;;;;5047308;28;20541;-77
2022/11/02 02:30:55;;;;;;;12.43;2.45;;;13.60;99.90;;;;;;5066856;28;20041;-77
2022/11/02 02:33:34;;;;;;;13.07;2.60;;;13.60;99.90;;;;;;5046229;28;20408;-77
2022/11/02 02:36:05;;;;;;;9.70;2.30;;;13.60;99.90;;;;;;5077285;28;20048;-77
2022/11/02 02:39:03;;;;;;;10.77;2.53;;;13.50;99.90;;;;;;5060918;28;20480;-77
2022/11/02 02:41:37;;;;;;;13.00;2.63;;;13.60;99.90;;;;;;5054298;28;20381;-76
2022/11/02 02:44:08;;;;;;;11.10;2.45;;;13.50;99.90;;;;;;5049573;28;20106;-77
2022/11/02 02:46:39;;;;;;;13.57;2.33;;;13.50;99.90;;;;;;5073675;28;20122;-77
2022/11/02 02:49:09;;;;;;;8.38;2.03;;;13.50;99.90;;;;;;5048396;28;20083;-77
2022/11/02 02:51:36;;;;;;;12.80;2.40;;;13.40;99.90;;;;;;5061518;28;20051;-77
2022/11/02 02:54:07;;;;;;;9.48;2.50;;;13.40;99.90;;;;;;5075668;28;20093;-77
2022/11/02 02:56:40;;;;;;;8.23;2.08;;;13.30;99.90;;;;;;5064842;28;20049;-77
2022/11/02 02:59:26;;;;;;;7.90;2.00;;;13.30;99.90;;;;;;5049202;28;20642;-77
2022/11/02 03:01:54;;;;;;;8.13;2.05;;;13.30;99.90;;;;;;5060172;28;20099;-77
2022/11/02 03:04:20;;;;;;;8.85;1.92;;;13.20;99.90;;;;;;5058374;28;20037;-77
2022/11/02 03:06:53;;;;;;;9.35;2.35;;;13.20;99.90;;;;;;5060272;28;20049;-77
2022/11/02 03:09:40;;;;;;;6.47;1.42;;;13.20;99.90;;;;;;5081795;27;20049;-77
2022/11/02 03:12:19;;;;;;;;;;;13.20;99.90;;;;;;5053293;28;20039;-77
2022/11/02 03:15:05;;;;;;;7.60;1.90;;;13.10;99.90;;;;;;5057022;28;19937;-77
2022/11/02 03:18:24;;;;;;;6.50;1.75;;;13.10;99.90;;;;;;5056726;28;20491;-77
2022/11/02 03:21:10;;;;;;;6.75;1.70;;;13.10;99.90;;;;;;5042810;28;20057;-77
2022/11/02 03:23:47;;;;;;;6.63;1.67;;;13.10;99.90;;;;;;5057842;28;20052;-78
2022/11/02 03:26:29;;;;;;;8.20;1.52;;;13.00;99.90;;;;;;5046432;28;20045;-78
2022/11/02 03:29:09;;;;;;;10.27;1.95;;;13.00;99.90;;;;;;5055780;28;20936;-77
2022/11/02 03:31:44;;;;;;;4.15;1.63;;;12.90;99.90;;;;;;5056541;28;20056;-77
2022/11/02 03:34:40;;;;;;;6.72;1.20;;;12.90;99.90;;;;;;5062762;28;20057;-77
2022/11/02 03:37:13;;;;;;;4.10;1.10;;;12.80;99.90;;;;;;5056579;28;20044;-78
2022/11/02 03:39:52;;;;;;;6.70;1.23;;;12.70;99.90;;;;;;5059298;28;20312;-77
2022/11/02 03:42:21;;;;;;;4.65;1.00;;;12.70;99.90;;;;;;5070653;28;20545;-78
2022/11/02 03:44:54;;;;;;;6.50;1.30;;;12.60;99.90;;;;;;5053372;28;20044;-78
2022/11/02 03:47:21;;;;;;;5.00;1.35;;;12.60;99.90;;;;;;5060654;28;20760;-78
2022/11/02 03:49:50;;;;;;;5.20;1.20;;;12.60;99.90;;;;;;5056117;28;20043;-78
2022/11/02 03:52:21;;;;;;;4.95;1.10;;;12.40;99.90;;;;;;5069220;28;20039;-78
2022/11/02 03:55:11;;;;;;;6.38;1.30;;;12.50;99.90;;;;;;5062967;28;20587;-78
2022/11/02 03:57:47;;;;;;;5.30;1.27;;;12.50;99.90;;;;;;5047706;28;20101;-78
2022/11/02 04:00:18;;;;;;;6.83;1.23;;;12.50;99.90;;;;;;5050874;28;20157;-78
2022/11/02 04:02:48;;;;;;;7.10;1.20;;;12.40;99.90;;;;;;5053759;28;20310;-77
2022/11/02 04:05:14;;;;;;;4.38;0.98;;;12.40;99.90;;;;;;5077464;28;20392;-77
2022/11/02 04:08:19;;;;;;;5.90;1.20;;;12.40;99.90;;;;;;5071464;28;20076;-78
2022/11/02 04:14:36;;;;;;;3.60;1.17;;;12.40;99.90;;;;;;5052899;28;20052;-78
2022/11/02 04:16:05;;;;;;;3.63;0.95;;;12.30;99.90;;;;;;5057574;28;20075;-78
2022/11/02 04:21:14;;;;;;;3.63;1.15;;;12.20;99.90;;;;;;5058174;28;20828;-77
2022/11/02 04:26:24;;;;;;;7.32;1.48;;;12.20;99.90;;;;;;5067155;28;20040;-78
2022/11/02 04:28:50;;;;;;;5.90;1.55;;;12.10;99.90;;;;;;5076050;28;20059;-77
2022/11/02 04:31:15;;;;;;;4.88;1.52;;;12.10;99.90;;;;;;5079951;28;20451;-78
2022/11/02 04:33:41;;;;;;;5.05;1.30;;;12.10;99.90;;;;;;5059218;28;20070;-77
2022/11/02 04:36:07;;;;;;;8.13;1.60;;;12.10;99.90;;;;;;5114727;27;20048;-78
2022/11/02 04:38:42;;;;;;;7.40;1.70;;;12.10;99.90;;;;;;5072972;28;20650;-77
2022/11/02 04:43:58;;;;;;;9.13;1.63;;;12.10;99.90;;;;;;5061438;28;20119;-77
2022/11/02 04:46:27;;;;;;;7.75;1.90;;;12.00;99.90;;;;;;5060108;28;20033;-77
2022/11/02 04:48:53;;;;;;;6.82;1.70;;;12.10;99.90;;;;;;5050818;28;20047;-77
2022/11/02 04:51:20;;;;;;;9.85;1.88;;;12.10;99.90;;;;;;5050267;28;20033;-78
2022/11/02 04:53:46;;;;;;;11.85;2.00;;;12.00;99.90;;;;;;5050274;28;20045;-77
2022/11/02 04:56:12;;;;;;;6.80;2.20;;;12.10;99.90;;;;;;5056195;28;20036;-77
2022/11/02 04:58:38;;;;;;;8.52;1.88;;;12.00;99.90;;;;;;5058142;28;20041;-78
2022/11/02 05:01:10;;;;;;;9.32;2.15;;;12.10;99.90;;;;;;5060256;28;20152;-77
2022/11/02 05:03:36;;;;;;;10.82;1.85;;;12.20;99.90;;;;;;5065774;28;20052;-77
2022/11/02 05:06:02;;;;;;;6.53;1.65;;;12.10;99.90;;;;;;5087008;28;20044;-77
2022/11/02 05:08:28;;;;;;;8.27;1.83;;;12.10;99.90;;;;;;5089936;28;20040;-77
2022/11/02 05:10:55;;;;;;;8.43;1.70;;;12.10;99.90;;;;;;5121007;27;20040;-77
2022/11/02 05:13:22;;;;;;;8.30;1.77;;;12.10;99.90;;;;;;5072436;28;20134;-77
2022/11/02 05:15:47;;;;;;;9.88;1.98;;;12.10;99.90;;;;;;5065711;28;20083;-77
2022/11/02 05:18:13;;;;;;;10.48;2.20;;;12.00;99.90;;;;;;5097424;27;20067;-77
2022/11/02 05:20:38;;;;;;;8.38;2.00;;;12.10;99.90;;;;;;5062333;28;20041;-78
2022/11/02 05:23:05;;;;;;;9.55;2.28;;;12.00;99.90;;;;;;5067254;28;20044;-77
2022/11/02 05:25:31;;;;;;;8.10;2.00;;;12.00;99.90;;;;;;5090700;28;20044;-77
2022/11/02 05:27:57;;;;;;;9.93;2.42;;;12.00;99.90;;;;;;5070986;28;20508;-77
2022/11/02 05:30:22;;;;;;;12.10;2.22;;;12.00;99.90;;;;;;5065949;28;20097;-76
2022/11/02 05:32:48;;;;;;;10.80;2.13;;;12.00;99.90;;;;;;5068003;28;20442;-77
2022/11/02 05:35:14;;;;;;;12.02;2.25;;;12.00;99.90;;;;;;5053092;28;20045;-77
2022/11/02 05:37:39;;;;;;;9.93;2.30;;;12.10;99.90;;;;;;5048210;28;20531;-78
2022/11/02 05:40:07;;;;;;;12.73;2.80;;;12.20;99.90;;;;;;5060551;28;20037;-78
2022/11/02 05:42:33;;;;;;;;;;;12.10;99.90;;;;;;5051871;28;20049;-77
2022/11/02 05:44:58;;;;;;;12.23;2.60;;;12.20;99.90;;;;;;5052304;28;19970;-77
2022/11/02 05:47:24;;;;;;;11.30;2.40;;;12.10;99.90;;;;;;5060200;28;20060;-77
2022/11/02 05:49:50;;;;;;;9.88;2.33;;;12.20;99.90;;;;;;5076140;28;20448;-77
2022/11/02 05:52:16;;;;;;;9.32;2.60;;;12.20;99.90;;;;;;5058683;28;20156;-77
2022/11/02 05:54:41;;;;;;;11.93;2.45;;;12.20;99.90;;;;;;5084587;27;20083;-77
2022/11/02 05:57:07;;;;;;;11.95;2.63;;;12.20;99.90;;;;;;5052584;28;20044;-77
2022/11/02 05:59:33;;;;;;;16.20;3.05;;;12.10;99.90;;;;;;5078979;28;20041;-77
2022/11/02 06:01:58;;;;;;;13.55;3.10;;;12.10;99.90;;;;;;5069488;28;20491;-77
2022/11/02 06:04:24;;;;;;;12.73;3.22;;;12.10;99.90;;;;;;5064052;28;20041;-78
2022/11/02 06:06:50;;;;;;;11.18;2.80;;;12.10;99.90;;;;;;5076906;28;20064;-78
2022/11/02 06:09:15;;;;;;;13.40;2.67;;;12.10;99.90;;;;;;5073037;28;20460;-78
2022/11/02 06:11:41;;;;;;;13.77;2.95;;;12.10;99.90;;;;;;5050854;28;20082;-78
2022/11/02 06:14:06;;;;;;;13.48;3.40;;;12.10;99.90;;;;;;5048213;28;20103;-78
2022/11/02 06:16:32;;;;;;;11.73;3.17;;;12.00;99.90;;;;;;5051260;28;20043;-77
2022/11/02 06:18:58;;;;;;;12.23;3.13;;;12.00;99.90;;;;;;5058054;28;20446;-78
2022/11/02 06:21:23;;;;;;;15.18;4.05;;;12.00;99.90;;;;;;5058154;28;20045;-78
2022/11/02 06:23:50;;;;;;;14.27;3.10;;;12.00;99.90;;;;;;5058154;28;20048;-78
2022/11/02 06:26:15;;;;;;;11.38;2.58;;;12.00;99.90;;;;;;5058096;28;20118;-78
2022/11/02 06:28:41;;;;;;;15.65;3.00;;;12.00;99.90;;;;;;5055928;28;20131;-78
2022/11/02 06:31:07;;;;;;;10.95;2.70;;;12.00;99.90;;;;;;5058961;28;20049;-77
2022/11/02 06:33:32;;;;;;;14.02;3.28;;;12.00;99.90;;;;;;5078294;28;20503;-78
2022/11/02 06:35:58;;;;;;;14.95;3.10;;;12.00;99.90;;;;;;5074229;28;20048;-79
2022/11/02 06:38:24;;;;;;;13.75;3.20;;;12.00;99.90;;;;;;5058787;28;20048;-79
2022/11/02 06:40:58;;;;;;;15.75;3.42;;;12.00;99.90;;;;;;5066792;28;20064;-79
2022/11/02 06:43:24;;;;;;;13.88;3.30;;;12.00;99.90;;;;;;5062772;28;20045;-79
2022/11/02 06:45:56;;;;;;;11.13;3.45;;;12.00;99.90;;;;;;5064304;28;20480;-78
2022/11/02 06:48:22;;;;;;;12.88;3.10;;;12.00;99.90;;;;;;5053514;28;20678;-80
2022/11/02 06:50:48;;;;;;;13.30;3.67;;;11.90;99.90;;;;;;5054637;28;20131;-79
2022/11/02 06:53:14;;;;;;;13.43;3.40;;;11.90;99.90;;;;;;5075993;28;20126;-79
2022/11/02 06:55:39;;;;;;;12.85;3.63;;;11.90;99.90;;;;;;5063073;28;20401;-79
2022/11/02 06:58:05;;;;;;;16.05;3.40;;;11.90;99.90;;;;;;5077903;28;20048;-79
2022/11/02 07:00:31;;;;;;;12.43;3.35;;;11.90;99.90;;;;;;5070934;28;20047;-78
2022/11/02 07:03:06;;;;;;;13.93;3.25;;;11.90;99.90;;;;;;5066742;28;20045;-79
2022/11/02 07:05:33;;;;;;;12.55;2.85;;;11.90;99.90;;;;;;5108158;27;20116;-79
2022/11/02 07:07:58;;;;;;;15.30;3.25;;;11.80;99.90;;;;;;5073759;28;20195;-79
2022/11/02 07:10:25;;;;;;;11.98;2.92;;;11.80;99.90;;;;;;5068341;28;20044;-78
2022/11/02 07:12:53;;;;;;;16.95;3.17;;;11.80;99.90;;;;;;5068932;28;20056;-79
2022/11/02 07:15:22;;;;;;;12.77;3.17;;;11.90;99.90;;;;;;5067292;28;20125;-79
2022/11/02 07:17:48;;;;;;;14.32;3.58;;;11.90;99.90;;;;;;5056637;28;20044;-78
2022/11/02 07:20:14;;;;;;;13.98;2.90;;;11.90;99.90;;;;;;5064444;28;20094;-78
2022/11/02 07:22:40;;;;;;;13.05;3.45;;;11.90;99.90;;;;;;5075225;28;20052;-78
2022/11/02 07:25:06;;;;;;;14.23;3.10;;;11.90;99.90;;;;;;5067286;28;20535;-79
2022/11/02 07:27:37;;;;;;;9.18;2.58;;;11.90;99.90;;;;;;5070485;28;20093;-78
2022/11/02 07:30:03;;;;;;;9.45;2.60;;;11.90;99.90;;;;;;5061711;28;20691;-78
2022/11/02 07:32:29;;;;;;;10.10;2.50;;;11.90;99.90;;;;;;5064635;28;20241;-79
2022/11/02 07:34:55;;;;;;;12.57;3.03;;;11.90;99.90;;;;;;5061778;28;20391;-78
2022/11/02 07:37:20;;;;;;;12.32;3.42;;;11.90;99.90;;;;;;5052892;28;20083;-78
2022/11/02 07:39:46;;;;;;;14.30;3.08;;;12.00;99.90;;;;;;5058634;28;20047;-78
2022/11/02 07:42:12;;;;;;;13.57;3.15;;;12.00;99.90;;;;;;5066075;28;20043;-78
2022/11/02 07:44:38;;;;;;;15.32;3.22;;;12.10;99.90;;;;;;5053921;28;20037;-77
2022/11/02 07:47:03;;;;;;;12.55;2.90;;;12.20;99.90;;;;;;5054958;28;20157;-78
2022/11/02 07:49:29;;;;;;;18.20;3.72;;;12.20;99.90;;;;;;5074841;28;20372;-77
2022/11/02 07:51:55;;;;;;;14.00;3.38;;;12.30;99.90;;;;;;5065040;28;20487;-79
2022/11/02 07:54:21;;;;;;;13.68;3.03;;;12.40;99.90;;;;;;5059658;28;20051;-79
2022/11/02 07:56:46;;;;;;;14.88;2.97;;;12.40;99.90;;;;;;5061014;28;20040;-79
2022/11/02 07:59:12;;;;;;;12.32;2.75;;;12.50;99.90;;;;;;5051892;28;20074;-79
2022/11/02 08:01:38;;;;;;;11.73;2.58;;;12.50;99.90;;;;;;5070694;28;20082;-78
2022/11/02 08:04:03;;;;;;;15.18;3.17;;;12.60;99.90;;;;;;5067946;28;20071;-78
2022/11/02 08:06:29;;;;;;;12.43;2.40;;;12.60;99.90;;;;;;5069794;28;20101;-79
2022/11/02 08:08:55;;;;;;;12.40;2.80;;;12.60;99.90;;;;;;5072889;28;20121;-77
2022/11/02 08:11:24;;;;;;;15.73;3.28;;;12.70;99.90;;;;;;5080443;28;20506;-83
2022/11/02 08:13:50;;;;;;;11.68;2.90;;;12.70;99.90;;;;;;5080563;28;20036;-80
2022/11/02 08:16:15;;;;;;;12.45;2.60;;;12.70;99.90;;;;;;5081457;28;20047;-84
2022/11/02 08:18:41;;;;;;;12.88;2.67;;;12.60;99.90;;;;;;5085728;28;20036;-83
2022/11/02 08:21:06;;;;;;;15.18;2.40;;;12.60;99.90;;;;;;5105131;27;20045;-86
2022/11/02 08:23:32;;;;;;;13.20;2.72;;;12.60;99.90;;;;;;5071074;28;20466;-84
2022/11/02 08:25:59;;;;;;;11.43;2.67;;;12.60;99.90;;;;;;5123547;27;20326;-93
2022/11/02 08:28:29;;;;;;;11.60;3.00;;;12.60;99.90;;;;;;5084401;28;20483;-87
2022/11/02 08:30:57;;;;;;;14.20;3.10;;;12.60;99.90;;;;;;5090611;28;20389;-86
2022/11/02 08:33:23;;;;;;;12.75;3.00;;;12.60;99.90;;;;;;5093133;28;20127;-89
2022/11/02 08:35:50;;;;;;;13.35;3.33;;;12.50;99.90;;;;;;5086143;28;20072;-89
2022/11/02 08:38:17;;;;;;;15.43;3.10;;;12.60;99.90;;;;;;5093769;28;20083;-92
2022/11/02 08:40:43;;;;;;;11.20;2.65;;;12.50;99.90;;;;;;5078070;28;20043;-84
2022/11/02 08:43:11;;;;;;;11.90;2.50;;;12.50;99.90;;;;;;5078464;28;20124;-82
2022/11/02 08:45:39;;;;;;;11.95;2.80;;;12.50;99.90;;;;;;5074851;28;20051;-80
2022/11/02 08:48:06;;;;;;;11.55;2.63;;;12.50;99.90;;;;;;5088518;28;20043;-75
2022/11/02 08:50:32;;;;;;;12.02;2.70;;;12.50;99.90;;;;;;5088068;28;20036;-76
2022/11/02 08:52:57;;;;;;;13.55;2.83;;;12.50;99.90;;;;;;5085518;28;20059;-74
2022/11/02 08:55:23;;;;;;;10.13;2.13;;;12.50;99.90;;;;;;5090047;28;20046;-85
2022/11/02 08:57:54;;;;;;;9.82;2.10;;;12.50;99.90;;;;;;5083166;28;20032;-84
2022/11/02 09:00:22;;;;;;;12.23;2.75;;;12.50;99.90;;;;;;5084995;28;20036;-88
2022/11/02 09:03:06;;;;;;;13.55;2.70;;;12.50;99.90;;;;;;5085069;28;20040;-87
2022/11/02 09:05:37;;;;;;;11.85;2.50;;;12.50;99.90;;;;;;5077698;28;20033;-85
2022/11/02 09:08:09;;;;;;;9.70;1.90;;;12.50;99.90;;;;;;5057428;28;20040;-88
2022/11/02 09:10:36;;;;;;;12.43;2.30;;;12.50;99.90;;;;;;5076436;28;20062;-90
2022/11/02 09:13:04;;;;;;;12.63;2.60;;;12.60;99.90;;;;;;5079305;28;20127;-88
2022/11/02 09:15:31;;;;;;;12.52;2.42;;;12.60;99.90;;;;;;5069562;28;20040;-87
2022/11/02 09:17:57;;;;;;;8.63;1.77;;;12.60;99.90;;;;;;5080843;28;20044;-88
2022/11/02 09:20:22;;;;;;;8.77;2.17;;;12.60;99.90;;;;;;5077272;28;20176;-86
2022/11/02 09:22:48;;;;;;;9.23;1.88;;;12.60;99.90;;;;;;5086892;28;20056;-87
2022/11/02 09:25:14;;;;;;;11.40;1.90;;;12.70;99.90;;;;;;5076521;28;20051;-83
2022/11/02 09:27:41;;;;;;;8.93;2.17;;;12.70;99.90;;;;;;5068955;28;20063;-86
2022/11/02 09:30:08;;;;;;;11.10;2.30;;;12.70;99.90;;;;;;5064090;28;20151;-85
2022/11/02 09:32:35;;;;;;;;;;;12.80;99.90;;;;;;5068748;28;20151;-85
2022/11/02 09:35:02;;;;;;;11.23;1.77;;;12.80;99.90;;;;;;5080973;28;19924;-85
2022/11/02 09:37:28;;;;;;;7.75;2.00;;;12.80;99.90;;;;;;5085329;28;20127;-86
2022/11/02 09:39:57;;;;;;;9.35;2.20;;;12.80;99.90;;;;;;5081792;28;20176;-85
2022/11/02 09:42:24;;;;;;;8.70;2.22;;;12.90;99.90;;;;;;5078869;28;20044;-85
2022/11/02 09:44:55;;;;;;;;;;;12.90;99.90;;;;;;5082255;28;20093;-86
2022/11/02 09:47:22;;;;;;;13.05;2.30;;;13.00;99.90;;;;;;5068326;28;20048;-84
2022/11/02 09:49:48;;;;;;;9.13;1.85;;;13.00;99.90;;;;;;5078383;28;20136;-81
2022/11/02 09:52:30;;;;;;;9.48;1.70;;;13.10;99.90;;;;;;5089301;28;20043;-80
2022/11/02 09:54:58;;;;;;;12.73;2.38;;;13.10;99.90;;;;;;5075485;28;20176;-84
2022/11/02 09:57:29;;;;;;;12.43;2.80;;;13.20;99.90;;;;;;5076583;28;20048;-84
2022/11/02 09:59:55;;;;;;;11.40;1.95;;;13.20;99.90;;;;;;5070014;28;20048;-84
2022/11/02 10:02:42;;;;;;;11.88;2.03;;;13.30;99.90;;;;;;5088022;28;20040;-84
2022/11/02 10:05:56;;;;;;;10.95;2.53;;;13.30;99.90;;;;;;5062643;28;20040;-85
2022/11/02 10:08:43;;;;;;;12.50;2.78;;;13.30;99.90;;;;;;5035815;28;20045;-88
2022/11/02 10:11:15;;;;;;;;;;;13.30;99.90;;;;;;5083302;28;20415;-83
2022/11/02 10:13:52;;;;;;;14.43;2.10;;;13.30;99.90;;;;;;5085723;28;20371;-91
2022/11/02 10:16:46;;;;;;;8.25;2.00;;;13.40;99.90;;;;;;5085952;28;20054;-88
2022/11/02 10:19:16;;;;;;;12.60;2.10;;;13.60;99.90;;;;;;5088765;28;20051;-82
2022/11/02 10:21:45;;;;;;;10.70;2.10;;;13.60;99.90;;;;;;5083497;28;20040;-84
2022/11/02 10:24:29;;;;;;;11.20;2.00;;;13.70;99.90;;;;;;5113107;27;20156;-89
2022/11/02 10:26:59;;;;;;;11.85;2.75;;;13.70;99.90;;;;;;5074328;28;20090;-84
2022/11/02 10:29:40;;;;;;;10.85;2.88;;;13.70;99.90;;;;;;5081150;28;20101;-84
2022/11/02 10:32:12;;;;;;;8.32;1.83;;;13.70;99.90;;;;;;5087961;28;20044;-84
2022/11/02 10:34:39;;;;;;;10.82;2.28;;;13.60;99.90;;;;;;5086848;28;20093;-83
2022/11/02 10:37:28;;;;;;;10.30;1.92;;;13.60;99.90;;;;;;5088671;28;20040;-83
2022/11/02 10:40:15;;;;;;;11.45;2.00;;;13.50;99.90;;;;;;5067522;28;20216;-85
2022/11/02 10:43:09;;;;;;;8.80;2.25;;;13.50;99.90;;;;;;5074884;28;20075;-84
2022/11/02 10:46:23;;;;;;;10.82;2.00;;;13.50;99.90;;;;;;5079872;28;20048;-82
2022/11/02 10:49:17;;;;;;;9.32;2.08;;;13.50;99.90;;;;;;5031042;28;20060;-81
2022/11/02 10:51:42;;;;;;;10.43;2.00;;;13.60;99.90;;;;;;5066775;28;20041;-84
2022/11/02 10:54:13;;;;;;;11.68;1.90;;;13.50;99.90;;;;;;5087880;28;20044;-82
2022/11/02 10:56:41;;;;;;;10.20;2.28;;;13.50;99.90;;;;;;5072354;28;20036;-83
2022/11/02 10:59:17;;;;;;;9.55;1.88;;;13.60;99.90;;;;;;5087077;28;20040;-80
2022/11/02 11:01:55;;;;;;;9.65;1.85;;;13.50;99.90;;;;;;5083379;28;20075;-82
2022/11/02 11:04:26;;;;;;;11.80;2.63;;;13.50;99.90;;;;;;5080038;28;20043;-82
2022/11/02 11:06:53;;;;;;;9.63;1.88;;;13.50;99.90;;;;;;5072457;28;20124;-81
2022/11/02 11:09:21;;;;;;;11.13;2.03;;;13.50;99.90;;;;;;5065109;28;20040;-77
2022/11/02 11:12:01;;;;;;;8.88;2.00;;;13.50;99.90;;;;;;5062648;28;20048;-76
2022/11/02 11:14:29;;;;;;;7.85;1.80;;;13.50;99.90;;;;;;5073128;28;20305;-82
2022/11/02 11:17:00;;;;;;;14.00;2.20;;;13.50;99.90;;;;;;5090207;27;20036;-86
2022/11/02 11:19:34;;;;;;;10.88;2.13;;;13.40;99.90;;;;;;5063180;28;20036;-83
2022/11/02 11:22:35;;;;;;;11.98;2.15;;;13.40;99.90;;;;;;5066410;28;20131;-82
2022/11/02 11:25:09;;;;;;;9.35;1.75;;;13.40;99.90;;;;;;5077969;28;20418;-76
2022/11/02 11:27:56;;;;;;;10.90;2.42;;;13.40;99.90;;;;;;5082624;28;20091;-81
2022/11/02 11:30:35;;;;;;;15.32;2.38;;;13.50;99.90;;;;;;5051457;28;20467;-86
2022/11/02 11:33:04;;;;;;;9.45;2.05;;;13.50;99.90;;;;;;5071352;28;20476;-80
2022/11/02 11:35:37;;;;;;;12.88;2.00;;;13.60;99.90;;;;;;5064829;28;20052;-81
2022/11/02 11:38:13;;;;;;;7.57;1.50;;;13.70;99.90;;;;;;5098133;28;20107;-80
2022/11/02 11:40:43;;;;;;;8.43;2.00;;;13.80;99.90;;;;;;5067377;28;20036;-85
2022/11/02 11:43:12;;;;;;;7.43;1.80;;;13.90;99.90;;;;;;5071480;28;20032;-78
2022/11/02 11:45:38;;;;;;;9.80;2.35;;;14.00;99.90;;;;;;5068246;28;20040;-78
2022/11/02 11:48:26;;;;;;;11.10;1.90;;;14.10;99.90;;;;;;5068942;28;20038;-78
2022/11/02 11:50:52;;;;;;;9.63;1.90;;;14.10;99.90;;;;;;5063191;28;20039;-79
2022/11/02 11:53:22;;;;;;;8.82;1.70;;;14.10;99.90;;;;;;5065823;28;20045;-79
2022/11/02 11:55:59;;;;;;;10.18;1.95;;;14.20;99.90;;;;;;5066869;28;20032;-74
2022/11/02 11:58:31;;;;;;;13.00;2.63;;;14.30;99.90;;;;;;5080086;28;20047;-73
2022/11/02 12:01:05;;;;;;;11.02;2.58;;;14.30;99.90;;;;;;5049334;28;20670;-74
2022/11/02 12:03:31;;;;;;;12.73;2.67;;;14.40;99.90;;;;;;5065083;28;20072;-74
2022/11/02 12:06:14;;;;;;;10.60;1.88;;;14.50;99.90;;;;;;5067784;28;20464;-78
2022/11/02 12:08:44;;;;;;;10.48;2.25;;;14.60;99.90;;;;;;5064664;28;20717;-78
2022/11/02 12:11:35;;;;;;;8.90;1.70;;;14.60;99.90;;;;;;5051586;28;20048;-80
2022/11/02 12:14:38;;;;;;;11.95;2.10;;;14.60;99.90;;;;;;5064066;28;20052;-78
2022/11/02 12:17:24;;;;;;;11.00;2.08;;;14.60;99.90;;;;;;5057825;28;20130;-79
2022/11/02 12:20:09;;;;;;;11.77;2.13;;;14.50;99.90;;;;;;5057255;28;20048;-77
2022/11/02 12:22:43;;;;;;;12.45;1.92;;;14.50;99.90;;;;;;5067941;28;20048;-74
2022/11/02 12:25:49;;;;;;;12.32;2.20;;;14.50;99.90;;;;;;5065949;28;20166;-82
2022/11/02 12:28:43;;;;;;;9.80;1.90;;;14.60;99.90;;;;;;5068864;28;20106;-81
2022/11/02 12:31:29;;;;;;;9.02;1.83;;;14.70;99.90;;;;;;5061125;28;20046;-80
2022/11/02 12:34:16;;;;;;;8.38;1.73;;;14.70;99.90;;;;;;5059614;28;20119;-82
2022/11/02 12:37:00;;;;;;;;;;;14.80;99.90;;;;;;5071594;28;20044;-79
2022/11/02 12:40:09;;;;;;;9.98;2.05;;;14.80;99.90;;;;;;5066081;28;20437;-79
2022/11/02 12:42:47;;;;;;;9.45;1.98;;;14.80;99.90;;;;;;5050446;28;20522;-80
2022/11/02 12:45:47;;;;;;;8.20;1.75;;;14.80;99.90;;;;;;5066418;28;20097;-82
2022/11/02 12:48:33;;;;;;;10.63;2.25;;;14.70;99.90;;;;;;5062755;28;20150;-82
2022/11/02 12:51:20;;;;;;;7.60;1.58;;;14.70;99.90;;;;;;5071661;28;20518;-83
2022/11/02 12:53:58;;;;;;;10.27;1.80;;;14.70;99.90;;;;;;5067849;28;20599;-82
2022/11/02 12:56:43;;;;;;;6.25;1.80;;;14.70;99.90;;;;;;5063853;28;20041;-80
2022/11/02 12:59:32;;;;;;;9.32;1.83;;;14.80;99.90;;;;;;5054932;28;20067;-79
2022/11/02 13:02:09;;;;;;;8.40;1.75;;;14.90;99.90;;;;;;5068343;28;20094;-81
2022/11/02 13:04:50;;;;;;;7.53;1.40;;;15.00;99.90;;;;;;5071492;28;20102;-80
2022/11/02 13:07:29;;;;;;;9.52;2.05;;;14.90;99.50;;;;;;5071198;28;20078;-81
2022/11/02 13:09:59;;;;;;;8.57;1.73;;;14.90;99.90;;;;;;5072181;28;20135;-79
2022/11/02 13:12:26;;;;;;;8.57;2.13;;;14.80;99.90;;;;;;5064422;28;20045;-82
2022/11/02 13:14:55;;;;;;;8.65;1.60;;;14.80;99.90;;;;;;5072418;28;20098;-81
2022/11/02 13:17:23;;;;;;;9.23;1.55;;;14.80;98.50;;;;;;5067296;28;20054;-79